createdAt,value
2018-07-11T00:00:39.480Z,4.40
2018-07-11T00:03:07.220Z,4.20
2018-07-11T00:05:35.022Z,4.80
2018-07-11T00:08:02.772Z,5.00
2018-07-11T00:10:30.517Z,5.23
2018-07-11T00:12:58.210Z,4.73
2018-07-11T00:15:25.964Z,5.00
2018-07-11T00:17:53.582Z,4.47
2018-07-11T00:20:21.338Z,4.73
2018-07-11T00:22:49.150Z,4.57
2018-07-11T00:25:16.776Z,4.70
2018-07-11T00:27:44.503Z,4.23
2018-07-11T00:30:12.289Z,5.23
2018-07-11T00:32:40.072Z,4.83
2018-07-11T00:35:07.854Z,4.80
2018-07-11T00:37:35.579Z,5.30
2018-07-11T00:40:03.407Z,4.73
2018-07-11T00:42:31.197Z,5.83
2018-07-11T00:44:58.949Z,4.77
2018-07-11T00:47:26.702Z,5.27
2018-07-11T00:49:54.497Z,4.97
2018-07-11T00:52:22.467Z,5.17
2018-07-11T00:54:50.256Z,6.03
2018-07-11T00:57:18.250Z,5.10
2018-07-11T00:59:46.252Z,5.10
2018-07-11T01:02:14.487Z,4.13
2018-07-11T01:04:42.257Z,5.70
2018-07-11T01:07:10.033Z,4.33
2018-07-11T01:09:45.274Z,4.87
2018-07-11T01:12:13.069Z,4.60
2018-07-11T01:14:40.860Z,5.90
2018-07-11T01:17:14.201Z,4.80
2018-07-11T01:19:42.729Z,4.87
2018-07-11T01:22:10.511Z,6.03
2018-07-11T01:24:38.241Z,4.97
2018-07-11T01:27:05.967Z,5.03
2018-07-11T01:29:33.771Z,4.77
2018-07-11T01:32:01.523Z,6.17
2018-07-11T01:34:29.209Z,5.27
2018-07-11T01:36:56.897Z,5.67
2018-07-11T01:39:24.593Z,5.03
2018-07-11T01:41:52.363Z,4.93
2018-07-11T01:44:20.107Z,5.67
2018-07-11T01:46:50.109Z,5.83
2018-07-11T01:49:17.925Z,5.80
2018-07-11T01:51:57.658Z,5.50
2018-07-11T01:54:26.026Z,5.27
2018-07-11T01:56:53.812Z,5.90
2018-07-11T01:59:22.854Z,4.53
2018-07-11T02:01:50.629Z,6.97
2018-07-11T02:04:18.367Z,6.03
2018-07-11T02:06:46.201Z,5.27
2018-07-11T02:09:14.129Z,5.57
2018-07-11T02:11:42.139Z,5.50
2018-07-11T02:14:10.225Z,5.90
2018-07-11T02:16:38.033Z,6.43
2018-07-11T02:19:05.862Z,5.77
2018-07-11T02:21:33.672Z,5.97
2018-07-11T02:24:03.023Z,5.37
2018-07-11T02:26:30.761Z,6.30
2018-07-11T02:28:58.992Z,7.23
2018-07-11T02:31:27.154Z,6.47
2018-07-11T02:33:54.915Z,5.83
2018-07-11T02:36:22.674Z,5.93
2018-07-11T02:38:50.277Z,6.10
2018-07-11T02:41:18.046Z,6.60
2018-07-11T02:43:45.851Z,6.27
2018-07-11T02:46:13.589Z,6.10
2018-07-11T02:48:41.374Z,5.27
2018-07-11T02:51:09.172Z,5.33
2018-07-11T02:53:36.970Z,6.60
2018-07-11T02:56:04.824Z,5.13
2018-07-11T02:58:32.536Z,5.80
2018-07-11T03:01:00.273Z,5.50
2018-07-11T03:03:27.936Z,5.37
2018-07-11T03:05:55.951Z,5.37
2018-07-11T03:08:34.136Z,6.30
2018-07-11T03:11:01.898Z,5.70
2018-07-11T03:13:29.596Z,5.63
2018-07-11T03:15:57.362Z,5.83
2018-07-11T03:18:25.074Z,5.73
2018-07-11T03:20:52.820Z,5.80
2018-07-11T03:23:20.568Z,5.47
2018-07-11T03:25:48.301Z,5.47
2018-07-11T03:28:16.295Z,5.67
2018-07-11T03:30:44.088Z,6.10
2018-07-11T03:33:11.788Z,5.13
2018-07-11T03:35:39.503Z,5.77
2018-07-11T03:38:07.276Z,5.97
2018-07-11T03:40:35.043Z,6.37
2018-07-11T03:43:02.839Z,5.73
2018-07-11T03:45:30.510Z,5.83
2018-07-11T03:47:58.266Z,5.13
2018-07-11T03:50:25.967Z,6.10
2018-07-11T03:52:53.656Z,6.43
2018-07-11T03:55:21.336Z,6.27
2018-07-11T03:57:49.032Z,6.30
2018-07-11T04:00:16.774Z,6.30
2018-07-11T04:02:44.496Z,5.37
2018-07-11T04:05:12.330Z,5.40
2018-07-11T04:07:40.033Z,6.07
2018-07-11T04:10:07.730Z,5.47
2018-07-11T04:12:35.381Z,5.10
2018-07-11T04:15:03.138Z,5.90
2018-07-11T04:17:30.812Z,6.23
2018-07-11T04:19:58.570Z,5.47
2018-07-11T04:22:26.290Z,6.87
2018-07-11T04:24:53.971Z,6.67
2018-07-11T04:27:21.784Z,6.60
2018-07-11T04:29:49.836Z,6.13
2018-07-11T04:32:17.616Z,5.37
2018-07-11T04:34:45.321Z,6.03
2018-07-11T04:37:12.995Z,6.50
2018-07-11T04:39:40.726Z,6.73
2018-07-11T04:42:08.604Z,6.23
2018-07-11T04:44:36.420Z,6.40
2018-07-11T04:47:04.150Z,7.00
2018-07-11T04:49:31.932Z,6.20
2018-07-11T04:51:59.714Z,6.97
2018-07-11T04:54:27.348Z,6.13
2018-07-11T04:56:55.136Z,6.53
2018-07-11T04:59:22.859Z,6.10
2018-07-11T05:01:50.542Z,6.83
2018-07-11T05:04:18.482Z,6.73
2018-07-11T05:06:46.148Z,6.77
2018-07-11T05:09:13.826Z,5.97
2018-07-11T05:11:41.553Z,6.50
2018-07-11T05:14:09.249Z,6.53
2018-07-11T05:16:36.940Z,6.77
2018-07-11T05:19:04.784Z,6.07
2018-07-11T05:21:32.448Z,6.33
2018-07-11T05:24:00.073Z,6.63
2018-07-11T05:26:27.814Z,6.47
2018-07-11T05:28:55.545Z,6.27
2018-07-11T05:31:23.181Z,6.93
2018-07-11T05:33:50.861Z,7.40
2018-07-11T05:36:18.564Z,7.20
2018-07-11T05:38:46.465Z,7.17
2018-07-11T05:41:14.180Z,6.03
2018-07-11T05:43:41.848Z,7.43
2018-07-11T05:46:09.501Z,6.97
2018-07-11T05:48:37.163Z,6.37
2018-07-11T05:51:04.861Z,6.17
2018-07-11T05:53:32.545Z,6.40
2018-07-11T05:56:00.533Z,5.70
2018-07-11T05:58:28.250Z,5.93
2018-07-11T06:00:55.961Z,6.30
2018-07-11T06:03:23.700Z,5.73
2018-07-11T06:05:51.416Z,6.30
2018-07-11T06:08:19.130Z,6.30
2018-07-11T06:10:46.823Z,5.73
2018-07-11T06:13:14.553Z,6.10
2018-07-11T06:15:42.293Z,6.30
2018-07-11T06:18:09.996Z,6.67
2018-07-11T06:20:37.697Z,4.63
2018-07-11T06:23:05.427Z,5.33
2018-07-11T06:25:33.137Z,6.73
2018-07-11T06:28:00.813Z,5.87
2018-07-11T06:30:28.542Z,6.17
2018-07-11T06:32:56.310Z,5.27
2018-07-11T06:35:24.050Z,5.53
2018-07-11T06:37:51.854Z,5.20
2018-07-11T06:40:19.562Z,5.43
2018-07-11T06:42:47.211Z,4.70
2018-07-11T06:45:14.961Z,5.13
2018-07-11T06:47:42.816Z,4.13
2018-07-11T06:50:10.568Z,4.20
2018-07-11T06:52:38.228Z,4.93
2018-07-11T06:55:05.908Z,4.53
2018-07-11T06:57:33.706Z,3.87
2018-07-11T07:00:01.472Z,3.13
2018-07-11T07:02:29.235Z,3.47
2018-07-11T07:04:56.885Z,3.53
2018-07-11T07:07:24.540Z,3.13
2018-07-11T07:09:52.216Z,2.90
2018-07-11T07:12:19.860Z,2.73
2018-07-11T07:14:47.569Z,2.97
2018-07-11T07:17:15.456Z,2.93
2018-07-11T07:19:43.152Z,2.87
2018-07-11T07:22:11.034Z,3.37
2018-07-11T07:24:38.786Z,2.83
2018-07-11T07:27:06.617Z,2.70
2018-07-11T07:29:34.368Z,2.17
2018-07-11T07:32:02.058Z,2.53
2018-07-11T07:34:29.671Z,2.63
2018-07-11T07:36:57.455Z,2.37
2018-07-11T07:39:25.211Z,2.50
2018-07-11T07:41:52.936Z,2.77
2018-07-11T07:44:20.596Z,2.20
2018-07-11T07:46:54.080Z,1.73
2018-07-11T07:49:21.910Z,1.90
2018-07-11T07:51:49.620Z,2.00
2018-07-11T07:54:17.382Z,2.40
2018-07-11T07:56:45.193Z,2.57
2018-07-11T07:59:13.310Z,2.60
2018-07-11T08:01:41.152Z,1.73
2018-07-11T08:04:10.280Z,1.67
2018-07-11T08:06:38.018Z,1.70
2018-07-11T08:09:05.969Z,2.33
2018-07-11T08:11:33.652Z,2.13
2018-07-11T08:14:01.363Z,2.00
2018-07-11T08:16:29.068Z,1.77
2018-07-11T08:18:56.788Z,1.80
2018-07-11T08:21:24.535Z,1.57
2018-07-11T08:24:03.509Z,2.10
2018-07-11T08:26:42.459Z,2.17
2018-07-11T08:29:36.871Z,2.23
2018-07-11T08:32:17.559Z,1.93
2018-07-11T08:34:47.626Z,1.53
2018-07-11T08:40:35.482Z,1.53
2018-07-11T08:44:10.651Z,1.40
2018-07-11T08:46:46.449Z,1.70
2018-07-11T08:49:25.516Z,1.90
2018-07-11T08:52:20.177Z,1.67
2018-07-11T08:56:02.471Z,1.70
2018-07-11T08:58:53.649Z,1.87
2018-07-11T09:01:36.704Z,1.80
2018-07-11T09:06:21.281Z,1.33
2018-07-11T09:09:04.131Z,2.17
2018-07-11T09:11:50.512Z,1.33
2018-07-11T09:14:28.440Z,1.50
2018-07-11T09:18:10.877Z,1.63
2018-07-11T09:23:56.014Z,1.50
2018-07-11T09:26:23.705Z,1.70
2018-07-11T09:28:51.429Z,1.40
2018-07-11T09:31:19.191Z,1.37
2018-07-11T09:33:46.887Z,1.57
2018-07-11T09:36:14.609Z,1.90
2018-07-11T09:38:42.321Z,1.57
2018-07-11T09:41:10.123Z,2.00
2018-07-11T09:43:37.881Z,1.67
2018-07-11T09:46:05.687Z,1.40
2018-07-11T09:48:33.530Z,1.47
2018-07-11T09:51:01.337Z,1.67
2018-07-11T09:53:29.145Z,1.90
2018-07-11T09:55:56.763Z,1.50
2018-07-11T09:58:24.546Z,1.40
2018-07-11T10:00:57.887Z,1.37
2018-07-11T10:03:25.905Z,1.80
2018-07-11T10:05:53.915Z,1.60
2018-07-11T10:08:21.607Z,1.27
2018-07-11T10:10:49.268Z,1.60
2018-07-11T10:13:16.991Z,1.50
2018-07-11T10:15:44.798Z,1.60
2018-07-11T10:18:12.515Z,1.37
2018-07-11T10:20:40.518Z,1.40
2018-07-11T10:23:08.249Z,1.43
2018-07-11T10:25:35.967Z,1.30
2018-07-11T10:28:12.347Z,1.50
2018-07-11T10:30:40.185Z,1.17
2018-07-11T10:33:07.915Z,1.70
2018-07-11T10:35:35.849Z,1.50
2018-07-11T10:38:03.613Z,1.50
2018-07-11T10:40:31.342Z,1.10
2018-07-11T10:42:59.253Z,1.70
2018-07-11T10:45:27.332Z,1.60
2018-07-11T10:47:55.080Z,1.50
2018-07-11T10:50:22.832Z,1.40
2018-07-11T10:52:50.918Z,1.30
2018-07-11T10:55:18.809Z,1.73
2018-07-11T10:57:46.766Z,1.47
2018-07-11T11:00:35.972Z,1.20
2018-07-11T11:02:47.430Z,1.30
2018-07-11T11:05:15.178Z,1.20
2018-07-11T11:07:43.186Z,1.30
2018-07-11T11:10:10.940Z,1.33
2018-07-11T11:12:38.733Z,1.40
2018-07-11T11:15:06.514Z,1.13
2018-07-11T11:17:34.232Z,1.10
2018-07-11T11:20:01.998Z,1.33
2018-07-11T11:22:29.754Z,1.70
2018-07-11T11:24:57.505Z,1.37
2018-07-11T11:27:25.180Z,1.50
2018-07-11T11:29:52.960Z,1.13
2018-07-11T11:32:20.666Z,1.40
2018-07-11T11:34:48.422Z,1.23
2018-07-11T11:37:16.153Z,1.00
2018-07-11T11:39:43.820Z,1.20
2018-07-11T11:42:11.830Z,1.47
2018-07-11T11:44:39.247Z,1.20
2018-07-11T11:47:06.978Z,1.20
2018-07-11T11:49:34.742Z,1.20
2018-07-11T11:52:02.308Z,1.20
2018-07-11T11:54:30.061Z,1.20
2018-07-11T11:56:57.788Z,1.10
2018-07-11T11:59:25.496Z,1.00
2018-07-11T12:01:53.274Z,1.00
2018-07-11T12:04:21.060Z,1.00
2018-07-11T12:06:48.698Z,1.13
2018-07-11T12:09:16.620Z,1.40
2018-07-11T12:11:44.383Z,1.30
2018-07-11T12:14:12.089Z,1.03
2018-07-11T12:16:39.842Z,1.10
2018-07-11T12:19:07.530Z,1.30
2018-07-11T12:21:35.321Z,1.12
2018-07-11T12:24:03.016Z,1.40
2018-07-11T12:26:30.795Z,1.30
2018-07-11T12:28:58.500Z,1.50
2018-07-11T12:31:26.249Z,1.60
2018-07-11T12:33:53.994Z,1.80
2018-07-11T12:36:21.790Z,1.80
2018-07-11T12:38:53.184Z,1.70
2018-07-11T12:41:21.176Z,1.67
2018-07-11T12:43:48.916Z,1.87
2018-07-11T12:46:16.704Z,1.73
2018-07-11T12:48:50.170Z,1.67
2018-07-11T12:51:17.776Z,1.50
2018-07-11T12:53:45.560Z,1.53
2018-07-11T12:56:13.352Z,1.50
2018-07-11T12:58:41.194Z,1.40
2018-07-11T13:01:08.998Z,1.33
2018-07-11T13:03:36.730Z,1.53
2018-07-11T13:06:04.956Z,1.27
2018-07-11T13:08:32.730Z,1.57
2018-07-11T13:11:00.537Z,1.37
2018-07-11T13:13:28.196Z,2.03
2018-07-11T13:15:55.912Z,1.97
2018-07-11T13:18:23.606Z,1.67
2018-07-11T13:20:51.305Z,1.63
2018-07-11T13:23:18.996Z,1.50
2018-07-11T13:25:46.702Z,1.53
2018-07-11T13:28:14.421Z,1.40
2018-07-11T13:30:42.233Z,1.83
2018-07-11T13:33:09.988Z,1.40
2018-07-11T13:35:37.689Z,1.50
2018-07-11T13:38:05.498Z,1.47
2018-07-11T13:40:33.459Z,1.60
2018-07-11T13:43:01.223Z,1.70
2018-07-11T13:45:29.015Z,1.00
2018-07-11T13:48:00.660Z,1.37
2018-07-11T13:50:28.493Z,1.40
2018-07-11T13:52:57.005Z,1.17
2018-07-11T13:55:25.085Z,1.77
2018-07-11T13:57:52.883Z,1.53
2018-07-11T14:00:20.644Z,1.43
2018-07-11T14:02:49.085Z,1.50
2018-07-11T14:05:17.051Z,1.50
2018-07-11T14:07:44.827Z,1.83
2018-07-11T14:10:12.784Z,2.07
2018-07-11T14:12:40.595Z,1.70
2018-07-11T14:15:08.708Z,2.00
2018-07-11T14:17:36.475Z,2.20
2018-07-11T14:20:05.316Z,1.90
2018-07-11T14:22:32.985Z,1.90
2018-07-11T14:25:01.270Z,2.20
2018-07-11T14:27:29.147Z,2.23
2018-07-11T14:29:59.207Z,2.20
2018-07-11T14:32:27.005Z,2.50
2018-07-11T14:34:54.790Z,2.43
2018-07-11T14:37:22.503Z,1.90
2018-07-11T14:39:50.318Z,2.67
2018-07-11T14:42:18.010Z,3.03
2018-07-11T14:44:45.824Z,2.70
2018-07-11T14:47:19.315Z,2.40
2018-07-11T14:49:47.088Z,2.10
2018-07-11T14:52:14.853Z,2.20
2018-07-11T14:54:42.633Z,2.47
2018-07-11T14:57:10.547Z,2.47
2018-07-11T14:59:38.255Z,2.20
2018-07-11T15:02:06.009Z,2.30
2018-07-11T15:04:33.727Z,1.93
2018-07-11T15:07:01.440Z,2.10
2018-07-11T15:09:29.357Z,2.00
2018-07-11T15:11:57.009Z,2.00
2018-07-11T15:14:24.843Z,2.30
2018-07-11T15:16:52.622Z,2.47
2018-07-11T15:19:20.386Z,2.50
2018-07-11T15:21:48.190Z,2.37
2018-07-11T15:24:16.303Z,2.30
2018-07-11T15:26:44.018Z,2.15
2018-07-11T15:29:11.807Z,2.42
2018-07-11T15:31:39.554Z,2.62
2018-07-11T15:34:07.353Z,2.40
2018-07-11T15:36:35.577Z,2.30
2018-07-11T15:39:04.313Z,2.35
2018-07-11T15:41:32.448Z,2.35
2018-07-11T15:44:00.415Z,1.90
2018-07-11T15:46:28.078Z,2.05
2018-07-11T15:48:55.808Z,2.55
2018-07-11T15:51:23.607Z,1.70
2018-07-11T15:53:51.437Z,2.75
2018-07-11T15:56:19.281Z,2.30
2018-07-11T15:58:52.843Z,2.40
2018-07-11T16:01:20.456Z,2.10
2018-07-11T16:03:48.445Z,1.87
2018-07-11T16:06:17.105Z,1.70
2018-07-11T16:08:47.256Z,2.25
2018-07-11T16:11:15.038Z,2.27
2018-07-11T16:13:42.820Z,1.65
2018-07-11T16:16:10.506Z,2.17
2018-07-11T16:18:38.207Z,1.72
2018-07-11T16:21:06.834Z,2.15
2018-07-11T16:23:34.621Z,2.20
2018-07-11T16:26:02.392Z,2.08
2018-07-11T16:28:30.160Z,2.37
2018-07-11T16:30:57.973Z,2.47
2018-07-11T16:33:25.745Z,2.42
2018-07-11T16:35:53.632Z,2.33
2018-07-11T16:38:21.388Z,2.12
2018-07-11T16:40:49.633Z,2.25
2018-07-11T16:43:17.469Z,2.52
2018-07-11T16:45:45.298Z,2.42
2018-07-11T16:48:13.073Z,2.15
2018-07-11T16:50:40.854Z,2.25
2018-07-11T16:53:08.687Z,2.00
2018-07-11T16:55:36.475Z,2.15
2018-07-11T16:58:04.274Z,2.60
2018-07-11T17:00:33.264Z,2.47
2018-07-11T17:03:11.126Z,2.58
2018-07-11T17:05:52.438Z,2.67
2018-07-11T17:08:28.668Z,2.67
2018-07-11T17:11:03.484Z,2.37
2018-07-11T17:13:31.282Z,2.30
2018-07-11T17:15:59.052Z,2.10
2018-07-11T17:18:38.744Z,2.25
2018-07-11T17:21:08.188Z,2.27
2018-07-11T17:23:42.958Z,2.00
2018-07-11T17:26:10.629Z,2.15
2018-07-11T17:28:38.398Z,2.10
2018-07-11T17:31:06.204Z,2.25
2018-07-11T17:33:34.007Z,2.17
2018-07-11T17:36:01.788Z,2.45
2018-07-11T17:38:30.730Z,2.60
2018-07-11T17:41:00.811Z,2.00
2018-07-11T17:43:36.717Z,2.45
2018-07-11T17:46:05.299Z,2.40
2018-07-11T17:48:46.912Z,1.98
2018-07-11T17:51:51.114Z,2.12
2018-07-11T17:54:18.904Z,2.25
2018-07-11T17:56:57.085Z,2.08
2018-07-11T17:59:45.888Z,1.73
2018-07-11T18:02:19.134Z,2.10
2018-07-11T18:04:56.348Z,1.70
2018-07-11T18:07:56.057Z,2.17
2018-07-11T18:10:55.032Z,1.63
2018-07-11T18:13:42.071Z,1.40
2018-07-11T18:16:44.726Z,1.77
2018-07-11T18:19:18.091Z,1.77
2018-07-11T18:21:54.683Z,1.80
2018-07-11T18:24:36.056Z,1.67
2018-07-11T18:27:15.122Z,1.47
2018-07-11T18:32:02.643Z,1.47
2018-07-11T18:36:42.161Z,1.70
2018-07-11T18:39:15.609Z,2.10
2018-07-11T18:41:51.705Z,1.73
2018-07-11T18:45:35.272Z,2.00
2018-07-11T18:48:18.103Z,1.53
2018-07-11T18:52:58.972Z,1.53
2018-07-11T18:55:36.128Z,1.67
2018-07-11T18:58:19.151Z,1.70
2018-07-11T19:00:58.209Z,1.83
2018-07-11T19:03:34.675Z,1.40
2018-07-11T19:06:41.030Z,1.43
2018-07-11T19:09:11.082Z,1.37
2018-07-11T19:13:53.321Z,1.37
2018-07-11T19:17:04.564Z,1.70
2018-07-11T19:19:39.893Z,2.43
2018-07-11T19:24:19.965Z,2.03
2018-07-11T19:27:01.937Z,1.37
2018-07-11T19:29:49.119Z,1.50
2018-07-11T19:32:28.263Z,1.63
2018-07-11T19:37:04.693Z,2.10
2018-07-11T19:39:44.773Z,2.00
2018-07-11T19:42:17.885Z,1.70
2018-07-11T19:44:59.135Z,2.10
2018-07-11T19:47:40.717Z,1.33
2018-07-11T19:50:32.444Z,1.90
2018-07-11T19:53:09.147Z,1.70
2018-07-11T19:56:44.389Z,1.67
2018-07-11T19:59:13.158Z,1.80
2018-07-11T20:01:40.980Z,2.00
2018-07-11T20:04:09.511Z,2.13
2018-07-11T20:06:37.507Z,1.83
2018-07-11T20:09:06.132Z,2.00
2018-07-11T20:11:34.241Z,2.10
2018-07-11T20:14:01.970Z,1.90
2018-07-11T20:16:29.696Z,1.57
2018-07-11T20:18:57.680Z,1.63
2018-07-11T20:21:25.589Z,1.73
2018-07-11T20:23:53.334Z,1.57
2018-07-11T20:26:21.165Z,1.53
2018-07-11T20:28:49.001Z,1.37
2018-07-11T20:31:16.747Z,1.50
2018-07-11T20:33:44.482Z,1.80
2018-07-11T20:36:12.440Z,2.00
2018-07-11T20:38:40.853Z,1.90
2018-07-11T20:41:09.273Z,1.77
2018-07-11T20:43:36.930Z,1.97
2018-07-11T20:46:05.754Z,1.90
2018-07-11T20:48:33.528Z,1.80
2018-07-11T20:51:01.312Z,2.93
2018-07-11T20:53:29.054Z,2.13
2018-07-11T20:55:57.156Z,2.17
2018-07-11T20:58:36.682Z,2.27
2018-07-11T21:01:15.669Z,2.10
2018-07-11T21:03:53.492Z,2.30
2018-07-11T21:07:30.798Z,2.53
2018-07-11T21:12:14.758Z,2.00
2018-07-11T21:16:55.208Z,2.57
2018-07-11T21:19:23.014Z,2.60
2018-07-11T21:21:50.644Z,2.30
2018-07-11T21:24:18.402Z,2.80
2018-07-11T21:26:46.096Z,2.20
2018-07-11T21:29:13.809Z,2.80
2018-07-11T21:31:41.478Z,2.70
2018-07-11T21:34:09.176Z,2.40
2018-07-11T21:36:36.940Z,2.93
2018-07-11T21:39:05.170Z,2.77
2018-07-11T21:41:33.120Z,2.70
2018-07-11T21:44:00.916Z,2.67
2018-07-11T21:46:28.604Z,2.47
2018-07-11T21:48:56.274Z,2.83
2018-07-11T21:51:24.042Z,2.70
2018-07-11T21:53:51.759Z,2.90
2018-07-11T21:56:19.510Z,2.60
2018-07-11T21:58:47.244Z,3.17
2018-07-11T22:01:15.985Z,2.57
2018-07-11T22:03:43.696Z,3.00
2018-07-11T22:06:11.364Z,2.97
2018-07-11T22:08:39.162Z,2.50
2018-07-11T22:11:06.793Z,3.30
2018-07-11T22:13:34.492Z,2.77
2018-07-11T22:16:02.177Z,3.50
2018-07-11T22:18:37.444Z,3.00
2018-07-11T22:21:05.054Z,3.33
2018-07-11T22:23:31.620Z,3.93
2018-07-11T22:25:58.840Z,3.57
2018-07-11T22:28:25.318Z,3.40
2018-07-11T22:30:51.827Z,4.13
2018-07-11T22:33:18.295Z,3.77
2018-07-11T22:35:44.797Z,3.57
2018-07-11T22:38:11.820Z,3.97
2018-07-11T22:40:38.524Z,3.30
2018-07-11T22:43:05.310Z,4.83
2018-07-11T22:45:31.826Z,3.93
2018-07-11T22:47:58.411Z,4.43
2018-07-11T22:50:25.108Z,3.93
2018-07-11T22:52:51.594Z,4.10
2018-07-11T22:55:18.093Z,4.20
2018-07-11T22:57:44.589Z,4.40
2018-07-11T23:00:11.060Z,4.77
2018-07-11T23:02:37.508Z,5.73
2018-07-11T23:05:04.009Z,4.47
2018-07-11T23:07:30.497Z,5.33
2018-07-11T23:09:56.980Z,5.13
2018-07-11T23:12:23.464Z,4.57
2018-07-11T23:14:49.948Z,5.20
2018-07-11T23:17:16.410Z,5.20
2018-07-11T23:19:42.910Z,6.77
2018-07-11T23:22:09.384Z,8.73
2018-07-11T23:24:35.848Z,8.90
2018-07-11T23:27:02.333Z,9.23
2018-07-11T23:29:28.814Z,10.13
2018-07-11T23:31:55.313Z,9.03
2018-07-11T23:34:21.805Z,12.47
2018-07-11T23:36:48.288Z,12.17
2018-07-11T23:39:14.783Z,13.93
2018-07-11T23:41:41.299Z,12.23
2018-07-11T23:44:07.769Z,13.23
2018-07-11T23:46:34.249Z,12.13
2018-07-11T23:49:00.755Z,10.83
2018-07-11T23:51:27.217Z,12.23
2018-07-11T23:53:53.691Z,9.17
2018-07-11T23:56:20.216Z,10.47
2018-07-11T23:58:47.065Z,10.93
